sensor_id;sensor_type;location;lat;lon;timestamp;P1;durP1;ratioP1;P2;durP2;ratioP2
76336;SDS011;65157;50.082;18.178;2023-06-22T00:00:19;10.90;;;5.30;;
76336;SDS011;65157;50.082;18.178;2023-06-22T00:03:06;6.00;;;5.00;;
76336;SDS011;65157;50.082;18.178;2023-06-22T00:05:33;9.30;;;5.20;;
76336;SDS011;65157;50.082;18.178;2023-06-22T00:08:02;10.30;;;4.70;;
76336;SDS011;65157;50.082;18.178;2023-06-22T00:10:29;12.70;;;3.90;;
76336;SDS011;65157;50.082;18.178;2023-06-22T00:12:56;9.60;;;4.20;;
76336;SDS011;65157;50.082;18.178;2023-06-22T00:15:23;7.50;;;4.10;;
76336;SDS011;65157;50.082;18.178;2023-06-22T00:17:49;10.40;;;4.20;;
76336;SDS011;65157;50.082;18.178;2023-06-22T00:20:17;7.00;;;4.30;;
76336;SDS011;65157;50.082;18.178;2023-06-22T00:22:44;10.10;;;4.70;;
76336;SDS011;65157;50.082;18.178;2023-06-22T00:25:11;10.60;;;4.30;;
76336;SDS011;65157;50.082;18.178;2023-06-22T00:27:38;10.60;;;4.20;;
76336;SDS011;65157;50.082;18.178;2023-06-22T00:30:04;11.30;;;4.60;;
76336;SDS011;65157;50.082;18.178;2023-06-22T00:32:31;10.60;;;5.20;;
76336;SDS011;65157;50.082;18.178;2023-06-22T00:34:58;12.10;;;4.90;;
76336;SDS011;65157;50.082;18.178;2023-06-22T00:37:25;10.80;;;4.40;;
76336;SDS011;65157;50.082;18.178;2023-06-22T00:39:51;10.50;;;4.70;;
76336;SDS011;65157;50.082;18.178;2023-06-22T00:42:20;12.30;;;5.50;;
76336;SDS011;65157;50.082;18.178;2023-06-22T00:44:47;7.80;;;5.10;;
76336;SDS011;65157;50.082;18.178;2023-06-22T00:47:14;11.90;;;4.90;;
76336;SDS011;65157;50.082;18.178;2023-06-22T00:49:43;14.90;;;5.60;;
76336;SDS011;65157;50.082;18.178;2023-06-22T00:52:11;14.10;;;6.10;;
76336;SDS011;65157;50.082;18.178;2023-06-22T00:54:37;10.10;;;5.00;;
76336;SDS011;65157;50.082;18.178;2023-06-22T00:57:04;8.70;;;4.80;;
76336;SDS011;65157;50.082;18.178;2023-06-22T00:59:31;7.90;;;5.40;;
76336;SDS011;65157;50.082;18.178;2023-06-22T01:01:57;8.60;;;5.10;;
76336;SDS011;65157;50.082;18.178;2023-06-22T01:04:33;9.90;;;5.50;;
76336;SDS011;65157;50.082;18.178;2023-06-22T01:07:08;9.00;;;5.10;;
76336;SDS011;65157;50.082;18.178;2023-06-22T01:10:06;12.10;;;5.50;;
76336;SDS011;65157;50.082;18.178;2023-06-22T01:12:39;8.40;;;4.60;;
76336;SDS011;65157;50.082;18.178;2023-06-22T01:15:13;10.40;;;5.40;;
76336;SDS011;65157;50.082;18.178;2023-06-22T01:17:47;7.60;;;4.40;;
76336;SDS011;65157;50.082;18.178;2023-06-22T01:20:16;6.70;;;4.80;;
76336;SDS011;65157;50.082;18.178;2023-06-22T01:22:59;10.00;;;4.30;;
76336;SDS011;65157;50.082;18.178;2023-06-22T01:25:43;9.80;;;4.20;;
76336;SDS011;65157;50.082;18.178;2023-06-22T01:28:59;12.30;;;4.60;;
76336;SDS011;65157;50.082;18.178;2023-06-22T01:31:17;8.80;;;4.20;;
76336;SDS011;65157;50.082;18.178;2023-06-22T01:33:47;9.50;;;4.50;;
76336;SDS011;65157;50.082;18.178;2023-06-22T01:36:19;8.40;;;4.10;;
76336;SDS011;65157;50.082;18.178;2023-06-22T01:38:47;10.00;;;4.60;;
76336;SDS011;65157;50.082;18.178;2023-06-22T01:41:15;11.30;;;4.90;;
76336;SDS011;65157;50.082;18.178;2023-06-22T01:43:43;6.70;;;5.20;;
76336;SDS011;65157;50.082;18.178;2023-06-22T01:46:11;9.80;;;5.00;;
76336;SDS011;65157;50.082;18.178;2023-06-22T01:48:38;9.20;;;4.00;;
76336;SDS011;65157;50.082;18.178;2023-06-22T01:51:06;9.60;;;4.60;;
76336;SDS011;65157;50.082;18.178;2023-06-22T01:53:33;12.80;;;4.90;;
76336;SDS011;65157;50.082;18.178;2023-06-22T01:56:01;7.10;;;5.10;;
76336;SDS011;65157;50.082;18.178;2023-06-22T01:58:28;8.80;;;5.10;;
76336;SDS011;65157;50.082;18.178;2023-06-22T02:01:00;8.60;;;5.10;;
76336;SDS011;65157;50.082;18.178;2023-06-22T02:03:47;11.30;;;4.80;;
76336;SDS011;65157;50.082;18.178;2023-06-22T02:06:24;8.50;;;4.80;;
76336;SDS011;65157;50.082;18.178;2023-06-22T02:08:57;9.80;;;5.70;;
76336;SDS011;65157;50.082;18.178;2023-06-22T02:11:27;9.80;;;5.70;;
76336;SDS011;65157;50.082;18.178;2023-06-22T02:13:57;10.90;;;5.50;;
76336;SDS011;65157;50.082;18.178;2023-06-22T02:16:24;9.20;;;5.90;;
76336;SDS011;65157;50.082;18.178;2023-06-22T02:18:52;12.30;;;5.80;;
76336;SDS011;65157;50.082;18.178;2023-06-22T02:21:19;10.80;;;5.60;;
76336;SDS011;65157;50.082;18.178;2023-06-22T02:23:47;12.30;;;5.20;;
76336;SDS011;65157;50.082;18.178;2023-06-22T02:26:15;12.20;;;5.30;;
76336;SDS011;65157;50.082;18.178;2023-06-22T02:28:43;10.70;;;5.50;;
76336;SDS011;65157;50.082;18.178;2023-06-22T02:31:11;8.10;;;5.20;;
76336;SDS011;65157;50.082;18.178;2023-06-22T02:33:37;10.70;;;5.90;;
76336;SDS011;65157;50.082;18.178;2023-06-22T02:36:04;11.20;;;5.80;;
76336;SDS011;65157;50.082;18.178;2023-06-22T02:38:31;12.00;;;6.50;;
76336;SDS011;65157;50.082;18.178;2023-06-22T02:40:58;11.50;;;6.00;;
76336;SDS011;65157;50.082;18.178;2023-06-22T02:43:25;13.10;;;5.90;;
76336;SDS011;65157;50.082;18.178;2023-06-22T02:45:52;9.70;;;5.30;;
76336;SDS011;65157;50.082;18.178;2023-06-22T02:48:19;14.70;;;6.30;;
76336;SDS011;65157;50.082;18.178;2023-06-22T02:50:45;9.30;;;5.20;;
76336;SDS011;65157;50.082;18.178;2023-06-22T02:53:12;9.90;;;5.50;;
76336;SDS011;65157;50.082;18.178;2023-06-22T02:58:05;9.70;;;5.10;;
76336;SDS011;65157;50.082;18.178;2023-06-22T03:02:58;11.80;;;5.50;;
76336;SDS011;65157;50.082;18.178;2023-06-22T03:05:25;12.30;;;5.70;;
76336;SDS011;65157;50.082;18.178;2023-06-22T03:07:52;12.20;;;5.70;;
76336;SDS011;65157;50.082;18.178;2023-06-22T03:12:45;14.00;;;5.50;;
76336;SDS011;65157;50.082;18.178;2023-06-22T03:15:12;8.60;;;6.00;;
76336;SDS011;65157;50.082;18.178;2023-06-22T03:17:39;11.30;;;6.30;;
76336;SDS011;65157;50.082;18.178;2023-06-22T03:20:07;8.40;;;5.30;;
76336;SDS011;65157;50.082;18.178;2023-06-22T03:22:35;9.30;;;6.20;;
76336;SDS011;65157;50.082;18.178;2023-06-22T03:25:02;13.50;;;5.90;;
76336;SDS011;65157;50.082;18.178;2023-06-22T03:27:29;10.50;;;5.40;;
76336;SDS011;65157;50.082;18.178;2023-06-22T03:29:56;10.10;;;5.10;;
76336;SDS011;65157;50.082;18.178;2023-06-22T03:32:23;11.70;;;6.20;;
76336;SDS011;65157;50.082;18.178;2023-06-22T03:34:50;14.80;;;6.80;;
76336;SDS011;65157;50.082;18.178;2023-06-22T03:37:17;9.40;;;6.00;;
76336;SDS011;65157;50.082;18.178;2023-06-22T03:39:43;13.30;;;5.90;;
76336;SDS011;65157;50.082;18.178;2023-06-22T03:42:10;12.00;;;7.00;;
76336;SDS011;65157;50.082;18.178;2023-06-22T03:44:37;11.70;;;6.00;;
76336;SDS011;65157;50.082;18.178;2023-06-22T03:47:04;11.50;;;6.90;;
76336;SDS011;65157;50.082;18.178;2023-06-22T03:49:30;14.30;;;7.10;;
76336;SDS011;65157;50.082;18.178;2023-06-22T03:51:57;14.00;;;9.40;;
76336;SDS011;65157;50.082;18.178;2023-06-22T03:54:23;14.50;;;10.00;;
76336;SDS011;65157;50.082;18.178;2023-06-22T03:59:17;12.20;;;8.90;;
76336;SDS011;65157;50.082;18.178;2023-06-22T04:01:46;13.70;;;10.00;;
76336;SDS011;65157;50.082;18.178;2023-06-22T04:06:39;13.80;;;10.70;;
76336;SDS011;65157;50.082;18.178;2023-06-22T04:11:32;13.40;;;9.90;;
76336;SDS011;65157;50.082;18.178;2023-06-22T04:13:59;17.80;;;12.10;;
76336;SDS011;65157;50.082;18.178;2023-06-22T04:16:26;18.60;;;13.90;;
76336;SDS011;65157;50.082;18.178;2023-06-22T04:18:53;20.90;;;14.40;;
76336;SDS011;65157;50.082;18.178;2023-06-22T04:21:19;18.20;;;14.50;;
76336;SDS011;65157;50.082;18.178;2023-06-22T04:23:46;16.60;;;12.40;;
76336;SDS011;65157;50.082;18.178;2023-06-22T04:26:13;16.00;;;13.40;;
76336;SDS011;65157;50.082;18.178;2023-06-22T04:28:40;19.60;;;13.80;;
76336;SDS011;65157;50.082;18.178;2023-06-22T04:31:07;18.60;;;13.30;;
76336;SDS011;65157;50.082;18.178;2023-06-22T04:33:34;23.10;;;15.60;;
76336;SDS011;65157;50.082;18.178;2023-06-22T04:36:00;19.00;;;14.80;;
76336;SDS011;65157;50.082;18.178;2023-06-22T04:38:27;16.60;;;13.60;;
76336;SDS011;65157;50.082;18.178;2023-06-22T04:40:54;18.20;;;14.70;;
76336;SDS011;65157;50.082;18.178;2023-06-22T04:43:20;20.10;;;15.10;;
76336;SDS011;65157;50.082;18.178;2023-06-22T04:45:47;21.50;;;17.00;;
76336;SDS011;65157;50.082;18.178;2023-06-22T04:48:14;23.10;;;15.90;;
76336;SDS011;65157;50.082;18.178;2023-06-22T04:50:41;21.00;;;15.60;;
76336;SDS011;65157;50.082;18.178;2023-06-22T04:53:08;21.50;;;16.60;;
76336;SDS011;65157;50.082;18.178;2023-06-22T04:55:35;22.00;;;18.70;;
76336;SDS011;65157;50.082;18.178;2023-06-22T04:58:02;26.00;;;18.60;;
76336;SDS011;65157;50.082;18.178;2023-06-22T05:00:28;26.50;;;20.90;;
76336;SDS011;65157;50.082;18.178;2023-06-22T05:02:55;22.10;;;16.20;;
76336;SDS011;65157;50.082;18.178;2023-06-22T05:05:22;23.40;;;18.70;;
76336;SDS011;65157;50.082;18.178;2023-06-22T05:07:49;21.30;;;18.80;;
76336;SDS011;65157;50.082;18.178;2023-06-22T05:10:16;27.60;;;19.70;;
76336;SDS011;65157;50.082;18.178;2023-06-22T05:12:46;26.10;;;20.50;;
76336;SDS011;65157;50.082;18.178;2023-06-22T05:15:13;21.50;;;18.80;;
76336;SDS011;65157;50.082;18.178;2023-06-22T05:17:39;24.30;;;18.50;;
76336;SDS011;65157;50.082;18.178;2023-06-22T05:20:07;25.80;;;19.80;;
76336;SDS011;65157;50.082;18.178;2023-06-22T05:22:34;24.90;;;20.10;;
76336;SDS011;65157;50.082;18.178;2023-06-22T05:25:01;24.30;;;18.50;;
76336;SDS011;65157;50.082;18.178;2023-06-22T05:27:27;26.00;;;20.70;;
76336;SDS011;65157;50.082;18.178;2023-06-22T05:29:54;23.50;;;20.00;;
76336;SDS011;65157;50.082;18.178;2023-06-22T05:32:21;25.30;;;19.40;;
76336;SDS011;65157;50.082;18.178;2023-06-22T05:34:47;23.50;;;18.60;;
76336;SDS011;65157;50.082;18.178;2023-06-22T05:37:14;27.20;;;20.60;;
76336;SDS011;65157;50.082;18.178;2023-06-22T05:39:41;24.50;;;21.00;;
76336;SDS011;65157;50.082;18.178;2023-06-22T05:42:07;25.20;;;22.40;;
76336;SDS011;65157;50.082;18.178;2023-06-22T05:44:34;28.60;;;22.00;;
76336;SDS011;65157;50.082;18.178;2023-06-22T05:47:01;24.00;;;19.80;;
76336;SDS011;65157;50.082;18.178;2023-06-22T05:49:30;25.20;;;21.10;;
76336;SDS011;65157;50.082;18.178;2023-06-22T05:51:57;24.10;;;19.00;;
76336;SDS011;65157;50.082;18.178;2023-06-22T05:54:23;23.10;;;20.00;;
76336;SDS011;65157;50.082;18.178;2023-06-22T05:56:50;23.00;;;18.90;;
76336;SDS011;65157;50.082;18.178;2023-06-22T05:59:16;25.00;;;20.20;;
76336;SDS011;65157;50.082;18.178;2023-06-22T06:01:43;27.80;;;23.00;;
76336;SDS011;65157;50.082;18.178;2023-06-22T06:04:10;25.50;;;19.40;;
76336;SDS011;65157;50.082;18.178;2023-06-22T06:06:36;27.50;;;20.40;;
76336;SDS011;65157;50.082;18.178;2023-06-22T06:09:04;24.80;;;21.20;;
76336;SDS011;65157;50.082;18.178;2023-06-22T06:11:30;23.90;;;20.70;;
76336;SDS011;65157;50.082;18.178;2023-06-22T06:13:57;24.70;;;22.00;;
76336;SDS011;65157;50.082;18.178;2023-06-22T06:16:24;25.40;;;22.10;;
76336;SDS011;65157;50.082;18.178;2023-06-22T06:18:51;25.70;;;20.60;;
76336;SDS011;65157;50.082;18.178;2023-06-22T06:21:17;25.50;;;22.40;;
76336;SDS011;65157;50.082;18.178;2023-06-22T06:23:44;22.60;;;19.90;;
76336;SDS011;65157;50.082;18.178;2023-06-22T06:26:11;23.40;;;17.50;;
76336;SDS011;65157;50.082;18.178;2023-06-22T06:28:38;23.80;;;20.50;;
76336;SDS011;65157;50.082;18.178;2023-06-22T06:31:04;22.30;;;19.20;;
76336;SDS011;65157;50.082;18.178;2023-06-22T06:33:31;20.80;;;17.40;;
76336;SDS011;65157;50.082;18.178;2023-06-22T06:35:57;21.60;;;19.40;;
76336;SDS011;65157;50.082;18.178;2023-06-22T06:38:24;23.40;;;19.10;;
76336;SDS011;65157;50.082;18.178;2023-06-22T06:40:51;20.90;;;17.80;;
76336;SDS011;65157;50.082;18.178;2023-06-22T06:43:17;20.90;;;18.10;;
76336;SDS011;65157;50.082;18.178;2023-06-22T06:45:44;18.30;;;16.30;;
76336;SDS011;65157;50.082;18.178;2023-06-22T06:48:11;20.20;;;17.40;;
76336;SDS011;65157;50.082;18.178;2023-06-22T06:50:37;19.40;;;16.00;;
76336;SDS011;65157;50.082;18.178;2023-06-22T06:53:04;19.10;;;16.50;;
76336;SDS011;65157;50.082;18.178;2023-06-22T06:55:31;16.90;;;14.80;;
76336;SDS011;65157;50.082;18.178;2023-06-22T06:57:57;16.70;;;14.90;;
76336;SDS011;65157;50.082;18.178;2023-06-22T07:00:24;17.30;;;15.30;;
76336;SDS011;65157;50.082;18.178;2023-06-22T07:02:50;18.70;;;16.70;;
76336;SDS011;65157;50.082;18.178;2023-06-22T07:05:18;16.90;;;15.20;;
76336;SDS011;65157;50.082;18.178;2023-06-22T07:07:44;20.60;;;18.30;;
76336;SDS011;65157;50.082;18.178;2023-06-22T07:10:11;18.70;;;16.80;;
76336;SDS011;65157;50.082;18.178;2023-06-22T07:12:38;20.80;;;17.80;;
76336;SDS011;65157;50.082;18.178;2023-06-22T07:15:05;17.60;;;15.60;;
76336;SDS011;65157;50.082;18.178;2023-06-22T07:17:33;18.20;;;16.00;;
76336;SDS011;65157;50.082;18.178;2023-06-22T07:20:01;17.00;;;15.00;;
76336;SDS011;65157;50.082;18.178;2023-06-22T07:22:28;18.80;;;16.90;;
76336;SDS011;65157;50.082;18.178;2023-06-22T07:24:54;21.70;;;17.20;;
76336;SDS011;65157;50.082;18.178;2023-06-22T07:27:21;17.90;;;16.10;;
76336;SDS011;65157;50.082;18.178;2023-06-22T07:29:48;20.60;;;17.70;;
76336;SDS011;65157;50.082;18.178;2023-06-22T07:32:14;18.20;;;14.70;;
76336;SDS011;65157;50.082;18.178;2023-06-22T07:34:41;17.90;;;15.70;;
76336;SDS011;65157;50.082;18.178;2023-06-22T07:37:08;20.00;;;17.80;;
76336;SDS011;65157;50.082;18.178;2023-06-22T07:39:34;15.70;;;14.10;;
76336;SDS011;65157;50.082;18.178;2023-06-22T07:42:01;17.80;;;15.70;;
76336;SDS011;65157;50.082;18.178;2023-06-22T07:44:28;17.00;;;14.60;;
76336;SDS011;65157;50.082;18.178;2023-06-22T07:46:55;17.20;;;15.30;;
76336;SDS011;65157;50.082;18.178;2023-06-22T07:49:21;16.90;;;15.10;;
76336;SDS011;65157;50.082;18.178;2023-06-22T07:51:48;14.90;;;13.40;;
76336;SDS011;65157;50.082;18.178;2023-06-22T07:54:15;14.50;;;13.00;;
76336;SDS011;65157;50.082;18.178;2023-06-22T07:56:41;15.40;;;13.80;;
76336;SDS011;65157;50.082;18.178;2023-06-22T07:59:08;17.70;;;15.80;;
76336;SDS011;65157;50.082;18.178;2023-06-22T08:01:35;15.40;;;13.40;;
76336;SDS011;65157;50.082;18.178;2023-06-22T08:04:01;15.10;;;13.50;;
76336;SDS011;65157;50.082;18.178;2023-06-22T08:06:29;14.50;;;12.90;;
76336;SDS011;65157;50.082;18.178;2023-06-22T08:08:56;17.20;;;15.40;;
76336;SDS011;65157;50.082;18.178;2023-06-22T08:11:26;16.20;;;13.00;;
76336;SDS011;65157;50.082;18.178;2023-06-22T08:13:53;15.10;;;13.50;;
76336;SDS011;65157;50.082;18.178;2023-06-22T08:16:20;18.30;;;16.30;;
76336;SDS011;65157;50.082;18.178;2023-06-22T08:18:46;16.10;;;14.60;;
76336;SDS011;65157;50.082;18.178;2023-06-22T08:21:13;15.70;;;14.10;;
76336;SDS011;65157;50.082;18.178;2023-06-22T08:23:40;16.40;;;14.70;;
76336;SDS011;65157;50.082;18.178;2023-06-22T08:26:06;18.60;;;16.80;;
76336;SDS011;65157;50.082;18.178;2023-06-22T08:28:33;16.70;;;15.00;;
76336;SDS011;65157;50.082;18.178;2023-06-22T08:31:00;17.10;;;14.00;;
76336;SDS011;65157;50.082;18.178;2023-06-22T08:33:28;17.50;;;15.90;;
76336;SDS011;65157;50.082;18.178;2023-06-22T08:35:55;16.60;;;14.90;;
76336;SDS011;65157;50.082;18.178;2023-06-22T08:38:22;16.00;;;14.50;;
76336;SDS011;65157;50.082;18.178;2023-06-22T08:40:48;17.40;;;15.60;;
76336;SDS011;65157;50.082;18.178;2023-06-22T08:43:15;16.90;;;15.40;;
76336;SDS011;65157;50.082;18.178;2023-06-22T08:45:41;15.40;;;13.90;;
76336;SDS011;65157;50.082;18.178;2023-06-22T08:48:08;17.00;;;15.40;;
76336;SDS011;65157;50.082;18.178;2023-06-22T08:50:35;18.00;;;16.30;;
76336;SDS011;65157;50.082;18.178;2023-06-22T08:53:02;15.00;;;13.40;;
76336;SDS011;65157;50.082;18.178;2023-06-22T08:55:29;16.50;;;14.90;;
76336;SDS011;65157;50.082;18.178;2023-06-22T08:57:55;16.00;;;14.40;;
76336;SDS011;65157;50.082;18.178;2023-06-22T09:00:22;16.70;;;15.00;;
76336;SDS011;65157;50.082;18.178;2023-06-22T09:02:49;17.00;;;15.30;;
76336;SDS011;65157;50.082;18.178;2023-06-22T09:05:15;14.00;;;12.60;;
76336;SDS011;65157;50.082;18.178;2023-06-22T09:07:42;17.20;;;15.40;;
76336;SDS011;65157;50.082;18.178;2023-06-22T09:10:09;16.40;;;14.90;;
76336;SDS011;65157;50.082;18.178;2023-06-22T09:12:36;13.40;;;12.10;;
76336;SDS011;65157;50.082;18.178;2023-06-22T09:15:03;13.60;;;12.20;;
76336;SDS011;65157;50.082;18.178;2023-06-22T09:17:30;14.90;;;13.30;;
76336;SDS011;65157;50.082;18.178;2023-06-22T09:19:56;14.10;;;12.90;;
76336;SDS011;65157;50.082;18.178;2023-06-22T09:22:23;13.80;;;12.60;;
76336;SDS011;65157;50.082;18.178;2023-06-22T09:24:50;14.10;;;12.80;;
76336;SDS011;65157;50.082;18.178;2023-06-22T09:27:16;14.60;;;13.20;;
76336;SDS011;65157;50.082;18.178;2023-06-22T09:29:43;12.50;;;11.30;;
76336;SDS011;65157;50.082;18.178;2023-06-22T09:32:10;13.10;;;11.80;;
76336;SDS011;65157;50.082;18.178;2023-06-22T09:34:37;13.50;;;12.20;;
76336;SDS011;65157;50.082;18.178;2023-06-22T09:37:04;14.90;;;13.60;;
76336;SDS011;65157;50.082;18.178;2023-06-22T09:39:31;13.10;;;11.40;;
76336;SDS011;65157;50.082;18.178;2023-06-22T09:41:59;16.40;;;15.00;;
76336;SDS011;65157;50.082;18.178;2023-06-22T09:44:26;15.90;;;14.50;;
76336;SDS011;65157;50.082;18.178;2023-06-22T09:46:52;13.40;;;12.10;;
76336;SDS011;65157;50.082;18.178;2023-06-22T09:49:19;12.50;;;11.40;;
76336;SDS011;65157;50.082;18.178;2023-06-22T09:51:46;12.30;;;11.10;;
76336;SDS011;65157;50.082;18.178;2023-06-22T09:54:12;11.10;;;10.10;;
76336;SDS011;65157;50.082;18.178;2023-06-22T09:56:39;13.70;;;12.40;;
76336;SDS011;65157;50.082;18.178;2023-06-22T09:59:06;11.60;;;10.00;;
76336;SDS011;65157;50.082;18.178;2023-06-22T10:01:33;11.70;;;10.70;;
76336;SDS011;65157;50.082;18.178;2023-06-22T10:04:01;10.60;;;9.70;;
76336;SDS011;65157;50.082;18.178;2023-06-22T10:06:28;10.80;;;9.80;;
76336;SDS011;65157;50.082;18.178;2023-06-22T10:08:55;9.60;;;8.80;;
76336;SDS011;65157;50.082;18.178;2023-06-22T10:11:22;11.90;;;10.90;;
76336;SDS011;65157;50.082;18.178;2023-06-22T10:13:48;11.20;;;10.20;;
76336;SDS011;65157;50.082;18.178;2023-06-22T10:16:15;11.40;;;10.20;;
76336;SDS011;65157;50.082;18.178;2023-06-22T10:18:42;11.80;;;10.60;;
76336;SDS011;65157;50.082;18.178;2023-06-22T10:21:08;12.90;;;11.80;;
76336;SDS011;65157;50.082;18.178;2023-06-22T10:23:37;13.20;;;12.10;;
76336;SDS011;65157;50.082;18.178;2023-06-22T10:26:04;10.90;;;10.00;;
76336;SDS011;65157;50.082;18.178;2023-06-22T10:28:30;10.70;;;9.80;;
76336;SDS011;65157;50.082;18.178;2023-06-22T10:30:57;11.00;;;10.00;;
76336;SDS011;65157;50.082;18.178;2023-06-22T10:33:24;12.10;;;11.00;;
76336;SDS011;65157;50.082;18.178;2023-06-22T10:35:50;10.90;;;10.00;;
76336;SDS011;65157;50.082;18.178;2023-06-22T10:38:17;10.90;;;9.80;;
76336;SDS011;65157;50.082;18.178;2023-06-22T10:40:44;11.30;;;10.40;;
76336;SDS011;65157;50.082;18.178;2023-06-22T10:43:10;11.10;;;10.00;;
76336;SDS011;65157;50.082;18.178;2023-06-22T10:45:37;10.20;;;9.30;;
76336;SDS011;65157;50.082;18.178;2023-06-22T10:48:04;13.60;;;12.50;;
76336;SDS011;65157;50.082;18.178;2023-06-22T10:50:31;10.50;;;9.60;;
76336;SDS011;65157;50.082;18.178;2023-06-22T10:52:57;10.60;;;9.70;;
76336;SDS011;65157;50.082;18.178;2023-06-22T10:55:24;10.00;;;9.20;;
76336;SDS011;65157;50.082;18.178;2023-06-22T10:57:50;9.60;;;8.70;;
76336;SDS011;65157;50.082;18.178;2023-06-22T11:00:17;12.50;;;11.50;;
76336;SDS011;65157;50.082;18.178;2023-06-22T11:02:44;14.00;;;12.70;;
76336;SDS011;65157;50.082;18.178;2023-06-22T11:05:11;11.20;;;10.20;;
76336;SDS011;65157;50.082;18.178;2023-06-22T11:07:40;9.60;;;8.90;;
76336;SDS011;65157;50.082;18.178;2023-06-22T11:10:08;10.60;;;9.60;;
76336;SDS011;65157;50.082;18.178;2023-06-22T11:12:35;13.80;;;12.60;;
76336;SDS011;65157;50.082;18.178;2023-06-22T11:15:02;11.10;;;10.20;;
76336;SDS011;65157;50.082;18.178;2023-06-22T11:17:28;11.30;;;10.40;;
76336;SDS011;65157;50.082;18.178;2023-06-22T11:19:55;10.20;;;9.30;;
76336;SDS011;65157;50.082;18.178;2023-06-22T11:22:22;10.50;;;9.50;;
76336;SDS011;65157;50.082;18.178;2023-06-22T11:24:49;9.20;;;8.50;;
76336;SDS011;65157;50.082;18.178;2023-06-22T11:27:15;10.10;;;9.20;;
76336;SDS011;65157;50.082;18.178;2023-06-22T11:29:42;10.80;;;9.90;;
76336;SDS011;65157;50.082;18.178;2023-06-22T11:32:09;10.20;;;9.30;;
76336;SDS011;65157;50.082;18.178;2023-06-22T11:34:35;9.70;;;8.90;;
76336;SDS011;65157;50.082;18.178;2023-06-22T11:37:02;12.40;;;11.30;;
76336;SDS011;65157;50.082;18.178;2023-06-22T11:39:28;9.90;;;9.00;;
76336;SDS011;65157;50.082;18.178;2023-06-22T11:41:55;10.20;;;9.40;;
76336;SDS011;65157;50.082;18.178;2023-06-22T11:44:22;10.10;;;9.10;;
76336;SDS011;65157;50.082;18.178;2023-06-22T11:46:48;9.60;;;8.80;;
76336;SDS011;65157;50.082;18.178;2023-06-22T11:49:15;10.00;;;9.00;;
76336;SDS011;65157;50.082;18.178;2023-06-22T11:51:42;10.30;;;9.30;;
76336;SDS011;65157;50.082;18.178;2023-06-22T11:54:08;10.70;;;9.70;;
76336;SDS011;65157;50.082;18.178;2023-06-22T11:56:35;10.60;;;9.70;;
76336;SDS011;65157;50.082;18.178;2023-06-22T11:59:02;9.90;;;9.10;;
76336;SDS011;65157;50.082;18.178;2023-06-22T12:01:28;12.60;;;11.40;;
76336;SDS011;65157;50.082;18.178;2023-06-22T12:03:55;10.60;;;9.20;;
76336;SDS011;65157;50.082;18.178;2023-06-22T12:06:22;10.80;;;10.00;;
76336;SDS011;65157;50.082;18.178;2023-06-22T12:08:48;11.30;;;10.30;;
76336;SDS011;65157;50.082;18.178;2023-06-22T12:11:15;13.30;;;12.20;;
76336;SDS011;65157;50.082;18.178;2023-06-22T12:13:42;10.20;;;9.30;;
76336;SDS011;65157;50.082;18.178;2023-06-22T12:16:08;10.20;;;9.40;;
76336;SDS011;65157;50.082;18.178;2023-06-22T12:18:35;10.20;;;9.30;;
76336;SDS011;65157;50.082;18.178;2023-06-22T12:21:02;10.50;;;9.60;;
76336;SDS011;65157;50.082;18.178;2023-06-22T12:23:28;10.00;;;9.10;;
76336;SDS011;65157;50.082;18.178;2023-06-22T12:25:55;12.50;;;11.60;;
76336;SDS011;65157;50.082;18.178;2023-06-22T12:28:22;9.50;;;8.70;;
76336;SDS011;65157;50.082;18.178;2023-06-22T12:30:48;12.40;;;11.30;;
76336;SDS011;65157;50.082;18.178;2023-06-22T12:33:15;10.40;;;9.40;;
76336;SDS011;65157;50.082;18.178;2023-06-22T12:35:42;9.90;;;9.10;;
76336;SDS011;65157;50.082;18.178;2023-06-22T12:38:08;9.90;;;8.90;;
76336;SDS011;65157;50.082;18.178;2023-06-22T12:40:35;10.40;;;9.50;;
76336;SDS011;65157;50.082;18.178;2023-06-22T12:43:02;10.00;;;9.20;;
76336;SDS011;65157;50.082;18.178;2023-06-22T12:45:28;9.60;;;8.80;;
76336;SDS011;65157;50.082;18.178;2023-06-22T12:47:55;9.50;;;8.70;;
76336;SDS011;65157;50.082;18.178;2023-06-22T12:50:22;10.30;;;9.60;;
76336;SDS011;65157;50.082;18.178;2023-06-22T12:52:48;10.20;;;9.10;;
76336;SDS011;65157;50.082;18.178;2023-06-22T12:55:15;11.80;;;10.60;;
76336;SDS011;65157;50.082;18.178;2023-06-22T12:57:42;11.00;;;10.00;;
76336;SDS011;65157;50.082;18.178;2023-06-22T13:00:08;11.20;;;10.10;;
76336;SDS011;65157;50.082;18.178;2023-06-22T13:02:36;10.00;;;9.10;;
76336;SDS011;65157;50.082;18.178;2023-06-22T13:05:02;10.70;;;9.90;;
76336;SDS011;65157;50.082;18.178;2023-06-22T13:07:29;10.30;;;9.50;;
76336;SDS011;65157;50.082;18.178;2023-06-22T13:09:56;10.40;;;9.40;;
76336;SDS011;65157;50.082;18.178;2023-06-22T13:12:23;11.50;;;10.60;;
76336;SDS011;65157;50.082;18.178;2023-06-22T13:14:50;10.10;;;9.20;;
76336;SDS011;65157;50.082;18.178;2023-06-22T13:17:17;9.60;;;8.90;;
76336;SDS011;65157;50.082;18.178;2023-06-22T13:19:43;9.50;;;8.60;;
76336;SDS011;65157;50.082;18.178;2023-06-22T13:22:26;11.10;;;10.30;;
76336;SDS011;65157;50.082;18.178;2023-06-22T13:24:55;10.60;;;9.30;;
76336;SDS011;65157;50.082;18.178;2023-06-22T13:27:21;11.80;;;10.90;;
76336;SDS011;65157;50.082;18.178;2023-06-22T13:29:48;11.20;;;10.20;;
76336;SDS011;65157;50.082;18.178;2023-06-22T13:32:15;11.40;;;10.40;;
76336;SDS011;65157;50.082;18.178;2023-06-22T13:34:42;9.30;;;8.70;;
76336;SDS011;65157;50.082;18.178;2023-06-22T13:37:09;9.50;;;8.80;;
76336;SDS011;65157;50.082;18.178;2023-06-22T13:39:36;10.00;;;9.20;;
76336;SDS011;65157;50.082;18.178;2023-06-22T13:42:02;9.60;;;8.70;;
76336;SDS011;65157;50.082;18.178;2023-06-22T13:44:29;9.20;;;8.40;;
76336;SDS011;65157;50.082;18.178;2023-06-22T13:46:56;8.40;;;7.70;;
76336;SDS011;65157;50.082;18.178;2023-06-22T13:49:22;10.00;;;9.20;;
76336;SDS011;65157;50.082;18.178;2023-06-22T13:51:49;11.80;;;10.80;;
76336;SDS011;65157;50.082;18.178;2023-06-22T13:54:16;9.40;;;8.70;;
76336;SDS011;65157;50.082;18.178;2023-06-22T13:56:43;9.70;;;8.90;;
76336;SDS011;65157;50.082;18.178;2023-06-22T13:59:09;10.30;;;9.30;;
76336;SDS011;65157;50.082;18.178;2023-06-22T14:01:36;12.10;;;11.10;;
76336;SDS011;65157;50.082;18.178;2023-06-22T14:04:03;10.90;;;10.00;;
76336;SDS011;65157;50.082;18.178;2023-06-22T14:06:29;13.90;;;12.90;;
76336;SDS011;65157;50.082;18.178;2023-06-22T14:08:56;10.30;;;9.40;;
76336;SDS011;65157;50.082;18.178;2023-06-22T14:11:24;12.50;;;11.40;;
76336;SDS011;65157;50.082;18.178;2023-06-22T14:13:51;11.00;;;10.20;;
76336;SDS011;65157;50.082;18.178;2023-06-22T14:16:17;12.10;;;11.10;;
76336;SDS011;65157;50.082;18.178;2023-06-22T14:18:44;11.30;;;10.40;;
76336;SDS011;65157;50.082;18.178;2023-06-22T14:21:11;11.30;;;10.30;;
76336;SDS011;65157;50.082;18.178;2023-06-22T14:23:38;10.40;;;9.50;;
76336;SDS011;65157;50.082;18.178;2023-06-22T14:26:04;9.70;;;8.90;;
76336;SDS011;65157;50.082;18.178;2023-06-22T14:28:31;10.30;;;9.30;;
76336;SDS011;65157;50.082;18.178;2023-06-22T14:30:58;10.50;;;9.60;;